createdAt,value
2023-01-07T00:00:50.896Z,1.50
2023-01-07T00:02:53.628Z,1.25
2023-01-07T00:04:56.556Z,1.55
2023-01-07T00:06:59.531Z,1.23
2023-01-07T00:09:05.517Z,1.30
2023-01-07T00:11:10.099Z,1.50
2023-01-07T00:13:12.786Z,1.10
2023-01-07T00:15:15.633Z,1.27
2023-01-07T00:17:18.323Z,1.30
2023-01-07T00:19:22.197Z,1.63
2023-01-07T00:21:26.430Z,1.42
2023-01-07T00:23:30.561Z,1.50
2023-01-07T00:25:34.544Z,1.35
2023-01-07T00:27:37.158Z,1.30
2023-01-07T00:29:39.803Z,1.48
2023-01-07T00:31:42.476Z,1.55
2023-01-07T00:33:51.753Z,1.42
2023-01-07T00:36:00.412Z,1.70
2023-01-07T00:38:03.579Z,1.60
2023-01-07T00:40:07.263Z,1.48
2023-01-07T00:42:28.961Z,1.98
2023-01-07T00:44:31.939Z,2.10
2023-01-07T00:46:34.964Z,1.92
2023-01-07T00:48:37.665Z,1.83
2023-01-07T00:50:40.612Z,1.58
2023-01-07T00:52:43.243Z,1.58
2023-01-07T00:54:45.879Z,1.70
2023-01-07T00:56:48.560Z,1.63
2023-01-07T00:58:52.570Z,1.50
2023-01-07T01:00:56.556Z,1.75
2023-01-07T01:02:59.407Z,1.77
2023-01-07T01:05:02.105Z,2.10
2023-01-07T01:07:04.800Z,1.90
2023-01-07T01:09:07.462Z,2.00
2023-01-07T01:11:11.516Z,1.80
2023-01-07T01:13:18.513Z,2.05
2023-01-07T01:15:22.589Z,1.50
2023-01-07T01:17:25.240Z,1.67
2023-01-07T01:19:27.888Z,1.60
2023-01-07T01:21:31.752Z,1.80
2023-01-07T01:23:34.609Z,1.60
2023-01-07T01:25:37.235Z,2.05
2023-01-07T01:27:40.379Z,2.00
2023-01-07T01:29:42.979Z,1.83
2023-01-07T01:31:47.014Z,2.08
2023-01-07T01:33:49.746Z,1.80
2023-01-07T01:35:52.337Z,1.40
2023-01-07T01:37:55.024Z,1.73
2023-01-07T01:39:57.666Z,1.83
2023-01-07T01:42:00.337Z,1.30
2023-01-07T01:44:03.451Z,1.73
2023-01-07T01:46:13.688Z,1.52
2023-01-07T01:48:19.300Z,1.30
2023-01-07T01:50:27.351Z,1.55
2023-01-07T01:52:34.809Z,1.65
2023-01-07T01:54:37.840Z,1.40
2023-01-07T01:56:45.589Z,1.52
2023-01-07T01:58:54.320Z,1.65
2023-01-07T02:00:57.101Z,1.60
2023-01-07T02:03:00.783Z,1.38
2023-01-07T02:05:06.039Z,1.60
2023-01-07T02:07:12.678Z,1.83
2023-01-07T02:09:15.372Z,2.45
2023-01-07T02:11:29.007Z,2.05
2023-01-07T02:13:47.559Z,2.70
2023-01-07T02:18:10.222Z,1.90
2023-01-07T02:20:34.989Z,1.60
2023-01-07T02:22:59.645Z,1.60
2023-01-07T02:25:24.552Z,1.00
2023-01-07T02:28:01.464Z,0.80
2023-01-07T02:30:43.187Z,1.20
2023-01-07T02:33:04.784Z,1.30
2023-01-07T02:35:21.441Z,1.35
2023-01-07T02:37:32.744Z,1.50
2023-01-07T02:39:47.017Z,1.35
2023-01-07T02:41:58.013Z,1.85
2023-01-07T02:44:05.714Z,1.40
2023-01-07T02:46:17.739Z,1.00
2023-01-07T02:48:23.880Z,0.93
2023-01-07T02:50:26.891Z,1.20
2023-01-07T02:52:33.161Z,1.25
2023-01-07T02:54:35.829Z,1.38
2023-01-07T02:56:54.080Z,1.08
2023-01-07T02:59:12.829Z,1.30
2023-01-07T03:01:42.607Z,1.30
2023-01-07T03:03:58.831Z,1.20
2023-01-07T03:06:13.972Z,0.93
2023-01-07T03:08:35.517Z,0.95
2023-01-07T03:10:43.398Z,1.20
2023-01-07T03:12:48.065Z,1.38
2023-01-07T03:14:52.919Z,1.23
2023-01-07T03:17:01.664Z,1.10
2023-01-07T03:19:10.348Z,1.20
2023-01-07T03:21:16.491Z,1.40
2023-01-07T03:23:23.509Z,1.13
2023-01-07T03:25:29.476Z,1.17
2023-01-07T03:27:36.121Z,1.08
2023-01-07T03:29:38.875Z,1.20
2023-01-07T03:31:48.483Z,1.02
2023-01-07T03:33:55.121Z,1.30
2023-01-07T03:36:01.317Z,1.27
2023-01-07T03:38:05.796Z,1.48
2023-01-07T03:40:12.103Z,1.00
2023-01-07T03:42:33.994Z,1.00
2023-01-07T03:44:36.986Z,0.90
2023-01-07T03:46:40.036Z,1.08
2023-01-07T03:48:42.852Z,0.93
2023-01-07T03:50:45.669Z,1.20
2023-01-07T03:52:50.799Z,1.20
2023-01-07T03:54:53.628Z,1.33
2023-01-07T03:56:56.240Z,1.10
2023-01-07T03:58:58.881Z,1.48
2023-01-07T04:01:01.605Z,1.05
2023-01-07T04:03:04.462Z,1.30
2023-01-07T04:05:07.855Z,1.05
2023-01-07T04:07:10.808Z,1.20
2023-01-07T04:09:18.688Z,1.23
2023-01-07T04:11:21.506Z,1.40
2023-01-07T04:13:24.586Z,1.70
2023-01-07T04:15:27.196Z,1.30
2023-01-07T04:17:29.902Z,1.42
2023-01-07T04:19:33.266Z,1.17
2023-01-07T04:21:35.916Z,1.30
2023-01-07T04:23:38.527Z,1.60
2023-01-07T04:25:43.050Z,1.58
2023-01-07T04:27:45.706Z,1.30
2023-01-07T04:29:48.367Z,1.38
2023-01-07T04:31:51.287Z,1.30
2023-01-07T04:33:53.933Z,1.67
2023-01-07T04:35:57.739Z,1.30
2023-01-07T04:38:00.522Z,1.50
2023-01-07T04:40:03.319Z,2.10
2023-01-07T04:42:07.373Z,2.85
2023-01-07T04:44:10.311Z,2.45
2023-01-07T04:46:13.067Z,1.90
2023-01-07T04:48:16.859Z,1.60
2023-01-07T04:50:19.546Z,1.30
2023-01-07T04:52:22.260Z,1.40
2023-01-07T04:54:24.873Z,1.50
2023-01-07T04:56:27.648Z,1.73
2023-01-07T04:58:31.662Z,1.60
2023-01-07T05:00:34.366Z,1.50
2023-01-07T05:02:37.133Z,1.67
2023-01-07T05:04:39.889Z,1.60
2023-01-07T05:06:42.588Z,1.70
2023-01-07T05:08:45.208Z,1.55
2023-01-07T05:10:49.919Z,1.27
2023-01-07T05:12:53.620Z,1.65
2023-01-07T05:14:57.558Z,2.00
2023-01-07T05:17:00.258Z,2.05
2023-01-07T05:19:02.927Z,1.95
2023-01-07T05:21:05.945Z,1.70
2023-01-07T05:23:08.904Z,1.70
2023-01-07T05:25:11.603Z,1.77
2023-01-07T05:27:14.375Z,1.42
2023-01-07T05:29:16.985Z,1.58
2023-01-07T05:31:21.580Z,1.58
2023-01-07T05:33:24.246Z,1.75
2023-01-07T05:35:26.920Z,2.08
2023-01-07T05:37:29.545Z,1.80
2023-01-07T05:39:32.308Z,1.58
2023-01-07T05:41:34.900Z,1.65
2023-01-07T05:43:37.539Z,1.65
2023-01-07T05:45:40.151Z,1.80
2023-01-07T05:47:45.100Z,1.92
2023-01-07T05:49:47.731Z,1.80
2023-01-07T05:51:50.380Z,1.55
2023-01-07T05:53:53.053Z,1.60
2023-01-07T05:55:59.308Z,1.95
2023-01-07T05:58:01.920Z,1.73
2023-01-07T06:00:05.901Z,1.80
2023-01-07T06:02:08.507Z,1.58
2023-01-07T06:04:12.563Z,1.60
2023-01-07T06:06:15.236Z,1.73
2023-01-07T06:08:18.133Z,1.60
2023-01-07T06:10:20.947Z,1.83
2023-01-07T06:12:23.583Z,2.00
2023-01-07T06:14:26.201Z,1.65
2023-01-07T06:16:29.372Z,2.03
2023-01-07T06:18:32.143Z,1.80
2023-01-07T06:20:36.305Z,1.83
2023-01-07T06:22:38.915Z,1.67
2023-01-07T06:24:41.572Z,1.80
2023-01-07T06:26:44.564Z,2.00
2023-01-07T06:28:47.202Z,1.52
2023-01-07T06:30:49.868Z,1.40
2023-01-07T06:32:52.598Z,1.08
2023-01-07T06:34:55.231Z,1.20
2023-01-07T06:36:59.163Z,1.17
2023-01-07T06:39:01.789Z,1.20
2023-01-07T06:41:04.665Z,1.20
2023-01-07T06:43:07.319Z,1.27
2023-01-07T06:45:10.888Z,1.10
2023-01-07T06:47:13.611Z,1.55
2023-01-07T06:49:16.360Z,1.27
2023-01-07T06:51:19.009Z,0.80
2023-01-07T06:53:23.106Z,1.50
2023-01-07T06:55:25.752Z,1.40
2023-01-07T06:57:28.423Z,1.80
2023-01-07T06:59:31.074Z,0.88
2023-01-07T07:01:33.953Z,1.10
2023-01-07T07:03:36.649Z,0.90
2023-01-07T07:05:39.474Z,0.90
2023-01-07T07:07:42.111Z,1.30
2023-01-07T07:09:47.220Z,0.77
2023-01-07T07:11:49.803Z,1.13
2023-01-07T07:13:52.446Z,0.90
2023-01-07T07:15:55.281Z,1.30
2023-01-07T07:17:57.942Z,1.10
2023-01-07T07:20:00.770Z,1.40
2023-01-07T07:22:04.738Z,1.10
2023-01-07T07:24:07.820Z,1.10
2023-01-07T07:26:11.841Z,1.75
2023-01-07T07:28:14.485Z,1.13
2023-01-07T07:30:17.462Z,1.20
2023-01-07T07:32:20.063Z,1.00
2023-01-07T07:34:22.749Z,1.30
2023-01-07T07:36:25.362Z,1.40
2023-01-07T07:38:28.056Z,1.02
2023-01-07T07:40:30.762Z,1.10
2023-01-07T07:43:11.715Z,1.10
2023-01-07T07:44:57.492Z,1.00
2023-01-07T07:47:00.192Z,1.27
2023-01-07T07:49:02.907Z,0.82
2023-01-07T07:51:06.050Z,1.08
2023-01-07T07:53:10.448Z,0.82
2023-01-07T07:55:20.373Z,0.80
2023-01-07T07:57:28.738Z,0.70
2023-01-07T07:59:32.789Z,0.80
2023-01-07T08:01:37.355Z,1.13
2023-01-07T08:03:40.411Z,0.95
2023-01-07T08:05:44.407Z,1.00
2023-01-07T08:07:47.067Z,1.00
2023-01-07T08:09:49.733Z,0.90
2023-01-07T08:11:52.377Z,0.65
2023-01-07T08:13:55.106Z,1.17
2023-01-07T08:15:59.183Z,1.08
2023-01-07T08:18:04.171Z,0.93
2023-01-07T08:20:08.702Z,1.10
2023-01-07T08:22:11.406Z,0.90
2023-01-07T08:24:14.096Z,0.80
2023-01-07T08:26:16.716Z,0.98
2023-01-07T08:28:19.300Z,1.30
2023-01-07T08:30:22.032Z,1.10
2023-01-07T08:32:26.124Z,0.90
2023-01-07T08:34:29.094Z,1.00
2023-01-07T08:36:31.803Z,1.10
2023-01-07T08:38:35.018Z,1.15
2023-01-07T08:40:38.998Z,0.90
2023-01-07T08:42:41.989Z,1.27
2023-01-07T08:44:44.682Z,1.33
2023-01-07T08:46:47.382Z,1.10
2023-01-07T08:48:51.460Z,1.30
2023-01-07T08:50:55.406Z,1.40
2023-01-07T08:52:58.329Z,1.42
2023-01-07T08:55:01.022Z,1.40
2023-01-07T08:57:03.755Z,1.48
2023-01-07T08:59:06.598Z,1.50
2023-01-07T09:01:09.497Z,1.50
2023-01-07T09:03:12.172Z,1.55
2023-01-07T09:05:16.402Z,1.70
2023-01-07T09:07:19.003Z,1.42
2023-01-07T09:09:22.535Z,1.90
2023-01-07T09:11:25.300Z,1.60
2023-01-07T09:13:28.107Z,1.48
2023-01-07T09:15:30.824Z,1.60
2023-01-07T09:17:33.502Z,1.88
2023-01-07T09:19:36.167Z,1.58
2023-01-07T09:21:41.341Z,1.80
2023-01-07T09:23:44.045Z,1.60
2023-01-07T09:25:46.650Z,1.58
2023-01-07T09:27:49.475Z,1.30
2023-01-07T09:29:52.133Z,1.60
2023-01-07T09:31:54.819Z,1.40
2023-01-07T09:33:57.560Z,1.42
2023-01-07T09:36:00.258Z,1.48
2023-01-07T09:38:04.300Z,1.70
2023-01-07T09:40:09.423Z,1.63
2023-01-07T09:42:22.625Z,1.90
2023-01-07T09:44:36.605Z,1.83
2023-01-07T09:46:39.521Z,1.50
2023-01-07T09:48:46.535Z,2.08
2023-01-07T09:50:55.816Z,2.05
2023-01-07T09:53:03.881Z,2.38
2023-01-07T09:55:17.612Z,2.20
2023-01-07T09:57:20.581Z,1.70
2023-01-07T09:59:23.257Z,2.03
2023-01-07T10:01:35.737Z,2.10
2023-01-07T10:03:51.406Z,1.80
2023-01-07T10:06:04.181Z,2.42
2023-01-07T10:08:29.304Z,2.17
2023-01-07T10:10:45.345Z,2.40
2023-01-07T10:12:55.953Z,2.25
2023-01-07T10:15:20.815Z,2.63
2023-01-07T10:17:39.260Z,2.65
2023-01-07T10:19:53.065Z,2.47
2023-01-07T10:21:58.598Z,2.58
2023-01-07T10:24:15.955Z,2.42
2023-01-07T10:26:29.773Z,2.33
2023-01-07T10:28:37.568Z,2.35
2023-01-07T10:30:45.169Z,2.35
2023-01-07T10:32:51.065Z,2.88
2023-01-07T10:34:57.992Z,2.78
2023-01-07T10:37:03.815Z,2.72
2023-01-07T10:39:18.318Z,2.80
2023-01-07T10:41:28.649Z,3.03
2023-01-07T10:43:46.437Z,2.67
2023-01-07T10:46:06.214Z,2.55
2023-01-07T10:48:37.945Z,2.72
2023-01-07T10:50:51.918Z,3.08
2023-01-07T10:53:04.341Z,3.22
2023-01-07T10:55:32.052Z,2.97
2023-01-07T10:57:37.657Z,3.10
2023-01-07T10:59:49.835Z,2.90
2023-01-07T11:01:55.866Z,2.92
2023-01-07T11:04:01.056Z,2.90
2023-01-07T11:06:09.891Z,3.10
2023-01-07T11:08:17.131Z,3.38
2023-01-07T11:10:22.383Z,2.58
2023-01-07T11:12:33.746Z,2.90
2023-01-07T11:14:41.917Z,2.65
2023-01-07T11:16:51.140Z,2.58
2023-01-07T11:18:59.922Z,3.13
2023-01-07T11:21:02.843Z,2.83
2023-01-07T11:23:19.370Z,2.80
2023-01-07T11:25:28.634Z,2.97
2023-01-07T11:27:35.181Z,3.25
2023-01-07T11:29:43.610Z,2.50
2023-01-07T11:31:50.388Z,2.70
2023-01-07T11:34:02.474Z,2.60
2023-01-07T11:36:08.668Z,3.10
2023-01-07T11:38:28.354Z,2.78
2023-01-07T11:40:33.419Z,3.20
2023-01-07T11:42:48.534Z,3.15
2023-01-07T11:45:09.316Z,2.72
2023-01-07T11:47:16.573Z,2.70
2023-01-07T11:49:26.219Z,2.85
2023-01-07T11:51:40.497Z,3.05
2023-01-07T11:53:47.181Z,3.17
2023-01-07T11:58:29.602Z,3.30
2023-01-07T12:00:24.417Z,2.97
2023-01-07T12:02:28.267Z,3.10
2023-01-07T12:04:33.198Z,3.13
2023-01-07T12:06:40.053Z,2.70
2023-01-07T12:08:50.727Z,2.70
2023-01-07T12:10:56.433Z,3.03
2023-01-07T12:13:01.138Z,3.05
2023-01-07T12:15:07.863Z,2.78
2023-01-07T12:19:31.977Z,3.42
2023-01-07T12:21:39.080Z,2.88
2023-01-07T12:23:50.516Z,3.17
2023-01-07T12:26:03.814Z,3.10
2023-01-07T12:28:13.760Z,3.97
2023-01-07T12:30:44.020Z,3.17
2023-01-07T12:35:14.186Z,3.25
2023-01-07T12:37:29.642Z,3.00
2023-01-07T12:39:36.384Z,3.03
2023-01-07T12:41:42.715Z,3.28
2023-01-07T12:43:57.789Z,3.00
2023-01-07T12:46:02.915Z,3.10
2023-01-07T12:48:14.146Z,2.95
2023-01-07T12:50:22.498Z,2.72
2023-01-07T12:52:36.921Z,3.08
2023-01-07T12:54:51.303Z,3.30
2023-01-07T12:56:57.712Z,2.35
2023-01-07T12:59:06.820Z,2.75
2023-01-07T13:01:20.031Z,2.88
2023-01-07T13:03:33.766Z,2.80
2023-01-07T13:05:40.241Z,2.92
2023-01-07T13:07:50.730Z,2.88
2023-01-07T13:09:59.730Z,2.72
2023-01-07T13:12:40.601Z,3.17
2023-01-07T13:14:48.677Z,2.15
2023-01-07T13:16:51.355Z,2.80
2023-01-07T13:18:55.382Z,2.80
2023-01-07T13:21:06.864Z,2.95
2023-01-07T13:23:20.648Z,3.13
2023-01-07T13:25:37.080Z,2.92
2023-01-07T13:28:02.812Z,2.90
2023-01-07T13:30:24.226Z,2.50
2023-01-07T13:32:46.199Z,3.00
2023-01-07T13:35:03.754Z,2.63
2023-01-07T13:37:21.404Z,2.55
2023-01-07T13:39:39.763Z,2.85
2023-01-07T13:41:56.332Z,2.67
2023-01-07T13:44:14.045Z,2.97
2023-01-07T13:46:21.555Z,2.75
2023-01-07T13:48:28.225Z,2.42
2023-01-07T13:50:36.512Z,2.88
2023-01-07T13:52:43.236Z,2.50
2023-01-07T13:55:01.612Z,2.60
2023-01-07T13:57:43.666Z,2.70
2023-01-07T13:59:49.756Z,2.55
2023-01-07T14:02:26.115Z,2.75
2023-01-07T14:04:36.735Z,2.58
2023-01-07T14:06:43.027Z,2.47
2023-01-07T14:08:46.435Z,2.42
2023-01-07T14:10:54.350Z,2.67
2023-01-07T14:13:25.336Z,2.70
2023-01-07T14:16:03.089Z,2.75
2023-01-07T14:18:27.539Z,2.80
2023-01-07T14:22:48.571Z,2.33
2023-01-07T14:25:14.197Z,2.30
2023-01-07T14:27:45.993Z,2.28
2023-01-07T14:29:50.346Z,2.20
2023-01-07T14:32:12.637Z,2.53
2023-01-07T14:34:21.591Z,2.50
2023-01-07T14:36:24.259Z,2.13
2023-01-07T14:39:06.677Z,2.47
2023-01-07T14:41:13.179Z,2.13
2023-01-07T14:43:47.943Z,2.50
2023-01-07T14:45:55.403Z,2.67
2023-01-07T14:47:58.067Z,2.10
2023-01-07T14:50:20.766Z,2.58
2023-01-07T14:52:58.702Z,2.17
2023-01-07T14:55:55.415Z,2.42
2023-01-07T14:58:17.861Z,2.28
2023-01-07T15:00:53.871Z,2.33
2023-01-07T15:03:22.967Z,2.90
2023-01-07T15:05:58.293Z,2.92
2023-01-07T15:08:19.260Z,2.47
2023-01-07T15:10:42.487Z,2.28
2023-01-07T15:13:07.639Z,2.88
2023-01-07T15:15:36.108Z,2.63
2023-01-07T15:17:40.460Z,2.42
2023-01-07T15:19:44.215Z,2.75
2023-01-07T15:22:01.143Z,2.90
2023-01-07T15:24:13.828Z,2.55
2023-01-07T15:26:22.909Z,3.08
2023-01-07T15:28:38.071Z,2.40
2023-01-07T15:30:51.400Z,2.53
2023-01-07T15:33:00.116Z,2.50
2023-01-07T15:35:10.366Z,2.70
2023-01-07T15:37:15.190Z,2.75
2023-01-07T15:39:23.279Z,2.65
2023-01-07T15:41:32.746Z,2.70
2023-01-07T15:43:35.795Z,3.05
2023-01-07T15:45:39.000Z,3.08
2023-01-07T15:47:43.501Z,3.20
2023-01-07T15:49:46.137Z,3.40
2023-01-07T15:51:50.438Z,3.10
2023-01-07T15:53:56.057Z,3.22
2023-01-07T15:56:00.891Z,3.30
2023-01-07T15:58:06.394Z,2.85
2023-01-07T16:00:10.196Z,3.00
2023-01-07T16:02:22.134Z,3.05
2023-01-07T16:04:30.563Z,3.53
2023-01-07T16:06:39.270Z,3.70
2023-01-07T16:08:45.279Z,2.90
2023-01-07T16:11:02.096Z,2.85
2023-01-07T16:13:06.316Z,3.42
2023-01-07T16:15:26.220Z,3.25
2023-01-07T16:17:28.916Z,3.10
2023-01-07T16:19:32.860Z,2.78
2023-01-07T16:21:39.219Z,2.97
2023-01-07T16:23:42.109Z,2.63
2023-01-07T16:25:47.915Z,3.40
2023-01-07T16:27:51.774Z,3.30
2023-01-07T16:29:59.429Z,2.75
2023-01-07T16:32:03.235Z,2.75
2023-01-07T16:34:45.417Z,2.30
2023-01-07T16:36:50.315Z,2.97
2023-01-07T16:38:57.975Z,2.83
2023-01-07T16:41:00.931Z,3.10
2023-01-07T16:43:03.799Z,2.70
2023-01-07T16:45:21.401Z,3.35
2023-01-07T16:47:25.785Z,3.10
2023-01-07T16:49:29.902Z,3.00
2023-01-07T16:51:38.553Z,3.47
2023-01-07T16:53:42.642Z,2.85
2023-01-07T16:55:51.044Z,2.83
2023-01-07T16:57:54.781Z,3.20
2023-01-07T16:59:59.392Z,3.70
2023-01-07T17:02:12.199Z,3.92
2023-01-07T17:06:25.473Z,3.70
2023-01-07T17:08:28.645Z,3.50
2023-01-07T17:10:34.432Z,4.00
2023-01-07T17:12:40.128Z,4.10
2023-01-07T17:14:48.216Z,4.60
2023-01-07T17:17:00.455Z,3.92
2023-01-07T17:19:26.340Z,3.40
2023-01-07T17:21:41.226Z,4.13
2023-01-07T17:23:45.644Z,4.38
2023-01-07T17:25:51.261Z,4.30
2023-01-07T17:27:57.862Z,4.55
2023-01-07T17:30:03.901Z,4.03
2023-01-07T17:32:07.591Z,4.15
2023-01-07T17:34:12.506Z,4.15
2023-01-07T17:36:17.670Z,4.65
2023-01-07T17:38:20.348Z,5.10
2023-01-07T17:40:23.127Z,4.72
2023-01-07T17:42:51.317Z,5.10
2023-01-07T17:44:53.993Z,3.92
2023-01-07T17:46:56.660Z,4.95
2023-01-07T17:48:59.674Z,4.80
2023-01-07T17:51:04.539Z,4.95
2023-01-07T17:53:07.334Z,4.97
2023-01-07T17:55:14.713Z,4.65
2023-01-07T17:57:17.358Z,5.63
2023-01-07T17:59:23.478Z,4.70
2023-01-07T18:01:27.176Z,5.35
2023-01-07T18:03:30.025Z,5.25
2023-01-07T18:05:33.147Z,5.07
2023-01-07T18:07:35.801Z,4.80
2023-01-07T18:09:38.795Z,4.45
2023-01-07T18:12:03.077Z,5.18
2023-01-07T18:14:06.380Z,4.60
2023-01-07T18:16:13.020Z,5.35
2023-01-07T18:18:15.808Z,5.28
2023-01-07T18:20:20.144Z,4.95
2023-01-07T18:22:23.747Z,5.60
2023-01-07T18:24:26.496Z,4.78
2023-01-07T18:26:29.103Z,5.95
2023-01-07T18:28:31.901Z,6.22
2023-01-07T18:30:36.505Z,6.25
2023-01-07T18:32:40.492Z,5.75
2023-01-07T18:34:43.112Z,6.00
2023-01-07T18:36:45.824Z,4.93
2023-01-07T18:38:49.613Z,5.07
2023-01-07T18:40:52.391Z,5.25
2023-01-07T18:42:55.295Z,4.32
2023-01-07T18:44:58.045Z,4.78
2023-01-07T18:47:00.779Z,5.03
2023-01-07T18:49:04.892Z,4.93
2023-01-07T18:51:10.903Z,6.03
2023-01-07T18:53:14.157Z,6.03
2023-01-07T18:55:17.917Z,6.28
2023-01-07T18:57:20.632Z,5.13
2023-01-07T18:59:23.331Z,5.22
2023-01-07T19:01:26.452Z,5.20
2023-01-07T19:03:29.188Z,5.97
2023-01-07T19:05:33.312Z,5.88
2023-01-07T19:07:36.123Z,5.95
2023-01-07T19:09:38.804Z,5.75
2023-01-07T19:11:41.878Z,5.53
2023-01-07T19:13:44.677Z,6.78
2023-01-07T19:15:47.353Z,6.40
2023-01-07T19:17:49.962Z,5.00
2023-01-07T19:19:52.640Z,6.15
2023-01-07T19:21:56.696Z,6.10
2023-01-07T19:24:03.546Z,5.93
2023-01-07T19:28:10.228Z,6.50
2023-01-07T19:30:13.762Z,6.47
2023-01-07T19:32:16.552Z,6.90
2023-01-07T19:34:31.191Z,5.95
2023-01-07T19:36:34.173Z,6.22
2023-01-07T19:38:40.921Z,6.15
2023-01-07T19:42:47.783Z,6.78
2023-01-07T19:44:50.487Z,4.85
2023-01-07T19:46:53.586Z,4.28
2023-01-07T19:48:56.335Z,6.10
2023-01-07T19:51:00.912Z,5.75
2023-01-07T19:53:03.515Z,6.40
2023-01-07T19:55:08.869Z,5.50
2023-01-07T19:57:11.830Z,6.70
2023-01-07T19:59:14.567Z,5.82
2023-01-07T20:01:19.202Z,6.07
2023-01-07T20:03:21.961Z,6.68
2023-01-07T20:05:25.938Z,6.95
2023-01-07T20:07:33.935Z,6.40
2023-01-07T20:09:36.640Z,7.28
2023-01-07T20:11:42.438Z,7.00
2023-01-07T20:13:46.225Z,7.15
2023-01-07T20:15:48.913Z,6.07
2023-01-07T20:17:51.530Z,5.90
2023-01-07T20:19:54.215Z,6.38
2023-01-07T20:21:56.851Z,5.70
2023-01-07T20:23:59.857Z,6.47
2023-01-07T20:26:04.571Z,6.10
2023-01-07T20:28:08.675Z,5.40
2023-01-07T20:30:12.543Z,5.88
2023-01-07T20:32:15.216Z,5.38
2023-01-07T20:34:18.001Z,4.85
2023-01-07T20:36:23.754Z,5.00
2023-01-07T20:38:26.417Z,5.13
2023-01-07T20:40:29.110Z,5.03
2023-01-07T20:42:32.770Z,4.72
2023-01-07T20:44:36.933Z,4.47
2023-01-07T20:46:40.629Z,4.40
2023-01-07T20:48:43.355Z,5.18
2023-01-07T20:50:46.035Z,4.68
2023-01-07T20:52:48.820Z,4.18
2023-01-07T20:54:51.509Z,7.55
2023-01-07T20:56:54.115Z,4.85
2023-01-07T20:58:57.359Z,4.95
2023-01-07T21:01:04.860Z,5.00
2023-01-07T21:03:08.046Z,4.93
2023-01-07T21:05:11.415Z,5.13
2023-01-07T21:07:14.083Z,5.00
2023-01-07T21:09:17.968Z,4.45
2023-01-07T21:11:22.888Z,4.90
2023-01-07T21:13:26.005Z,4.68
2023-01-07T21:15:28.687Z,4.78
2023-01-07T21:17:32.761Z,4.45
2023-01-07T21:19:35.422Z,4.20
2023-01-07T21:21:38.116Z,4.90
2023-01-07T21:23:41.524Z,4.38
2023-01-07T21:25:47.946Z,4.47
2023-01-07T21:27:50.537Z,4.45
2023-01-07T21:29:53.230Z,5.05
2023-01-07T21:31:57.391Z,4.13
2023-01-07T21:34:01.475Z,4.53
2023-01-07T21:36:07.885Z,5.40
2023-01-07T21:38:10.568Z,4.80
2023-01-07T21:40:13.535Z,4.53
2023-01-07T21:42:16.158Z,4.88
2023-01-07T21:44:19.457Z,4.50
2023-01-07T21:46:22.857Z,4.35
2023-01-07T21:48:25.493Z,3.88
2023-01-07T21:50:29.541Z,4.70
2023-01-07T21:52:32.342Z,4.50
2023-01-07T21:54:35.257Z,5.45
2023-01-07T21:56:37.870Z,5.03
2023-01-07T21:58:41.061Z,4.57
2023-01-07T22:00:43.659Z,4.93
2023-01-07T22:02:46.361Z,4.72
2023-01-07T22:04:49.231Z,4.20
2023-01-07T22:06:53.421Z,4.68
2023-01-07T22:08:57.767Z,4.43
2023-01-07T22:11:00.537Z,4.22
2023-01-07T22:13:03.099Z,4.43
2023-01-07T22:15:06.743Z,4.90
2023-01-07T22:17:11.271Z,4.55
2023-01-07T22:19:14.083Z,5.22
2023-01-07T22:21:17.544Z,5.95
2023-01-07T22:23:21.596Z,4.40
2023-01-07T22:25:24.261Z,4.93
2023-01-07T22:27:26.931Z,4.68
2023-01-07T22:29:31.585Z,5.40
2023-01-07T22:31:37.024Z,4.78
2023-01-07T22:33:39.723Z,5.03
2023-01-07T22:35:42.672Z,4.15
2023-01-07T22:37:45.460Z,4.55
2023-01-07T22:39:53.669Z,4.28
2023-01-07T22:42:00.362Z,4.68
2023-01-07T22:44:10.298Z,4.50
2023-01-07T22:46:20.710Z,5.43
2023-01-07T22:48:27.233Z,4.38
2023-01-07T22:50:30.024Z,4.80
2023-01-07T22:52:33.173Z,5.43
2023-01-07T22:54:36.520Z,5.00
2023-01-07T22:56:41.597Z,4.15
2023-01-07T22:58:44.254Z,4.63
2023-01-07T23:01:07.017Z,4.88
2023-01-07T23:03:09.790Z,5.03
2023-01-07T23:05:12.458Z,5.18
2023-01-07T23:07:15.141Z,4.82
2023-01-07T23:09:17.777Z,5.05
2023-01-07T23:11:34.352Z,4.88
2023-01-07T23:13:38.599Z,4.65
2023-01-07T23:15:41.674Z,3.88
2023-01-07T23:17:44.334Z,5.85
2023-01-07T23:19:47.011Z,4.72
2023-01-07T23:21:51.782Z,4.80
2023-01-07T23:23:54.652Z,4.25
2023-01-07T23:25:57.392Z,4.95
2023-01-07T23:28:00.030Z,5.55
2023-01-07T23:30:04.209Z,4.43
2023-01-07T23:32:10.394Z,4.80
2023-01-07T23:34:14.076Z,4.22
2023-01-07T23:36:16.927Z,4.22
2023-01-07T23:38:19.607Z,4.88
2023-01-07T23:40:22.283Z,4.95
2023-01-07T23:42:24.887Z,5.32
2023-01-07T23:44:27.598Z,5.38
2023-01-07T23:46:32.610Z,5.10
2023-01-07T23:48:37.274Z,5.38
2023-01-07T23:50:39.932Z,4.85
2023-01-07T23:52:42.663Z,4.72
2023-01-07T23:54:45.436Z,4.55
2023-01-07T23:56:48.680Z,5.18
2023-01-07T23:58:51.682Z,4.90
